BTK729 WAWW-WAMG
Flight info
| Callsign | BTK729 |
|---|---|
| Flight time | 0h 52m |
| Altitude | 35000 |
| Route | WAWW/08 NITUR1A NITUR DCT ENTEG ENTEG1C WAMG/27 |
| Aircraft | A20N/M-VGDW/C |
Departure
| Time | 2026-04-26 14:36 |
|---|---|
| Airport | Haluoleo Airport (WAWW) |
Arrival
| Time | 2026-04-26 15:28 |
|---|---|
| Airport | Jalaluddin Airport (WAMG) |
| Time | Latitude | Longitude | Altitude | Speed | Heading |
|---|---|---|---|---|---|
| 2026-04-26 14:21 | -4.07780 | 122.41780 | 149 ft | 0 kts | 349° |
| 2026-04-26 14:25 | -4.07792 | 122.41782 | 149 ft | 2 kts | 351° |
| 2026-04-26 14:25 | -4.07808 | 122.41785 | 150 ft | 2 kts | 349° |
| 2026-04-26 14:26 | -4.07822 | 122.41788 | 150 ft | 2 kts | 349° |
| 2026-04-26 14:26 | -4.07832 | 122.41790 | 150 ft | 1 kts | 349° |
| 2026-04-26 14:26 | -4.07844 | 122.41795 | 150 ft | 2 kts | 305° |
| 2026-04-26 14:26 | -4.07848 | 122.41808 | 149 ft | 0 kts | 265° |
| 2026-04-26 14:27 | -4.07847 | 122.41814 | 149 ft | 1 kts | 258° |
| 2026-04-26 14:27 | -4.07846 | 122.41817 | 149 ft | 0 kts | 259° |
| 2026-04-26 14:30 | -4.07848 | 122.41807 | 149 ft | 2 kts | 259° |
| 2026-04-26 14:31 | -4.07852 | 122.41782 | 151 ft | 4 kts | 261° |
| 2026-04-26 14:31 | -4.07859 | 122.41743 | 152 ft | 6 kts | 259° |
| 2026-04-26 14:31 | -4.07876 | 122.41698 | 154 ft | 8 kts | 219° |
| 2026-04-26 14:31 | -4.07947 | 122.41697 | 154 ft | 12 kts | 169° |
| 2026-04-26 14:32 | -4.08047 | 122.41715 | 154 ft | 16 kts | 169° |
| 2026-04-26 14:32 | -4.08171 | 122.41737 | 155 ft | 18 kts | 185° |
| 2026-04-26 14:32 | -4.08215 | 122.41641 | 160 ft | 14 kts | 260° |
| 2026-04-26 14:32 | -4.08233 | 122.41545 | 164 ft | 14 kts | 260° |
| 2026-04-26 14:33 | -4.08251 | 122.41440 | 168 ft | 15 kts | 259° |
| 2026-04-26 14:33 | -4.08272 | 122.41324 | 171 ft | 18 kts | 260° |
| 2026-04-26 14:33 | -4.08294 | 122.41193 | 176 ft | 19 kts | 261° |
| 2026-04-26 14:33 | -4.08318 | 122.41067 | 181 ft | 18 kts | 260° |
| 2026-04-26 14:34 | -4.08352 | 122.40947 | 184 ft | 17 kts | 237° |
| 2026-04-26 14:34 | -4.08358 | 122.40879 | 186 ft | 6 kts | 21° |
| 2026-04-26 14:34 | -4.08345 | 122.40916 | 185 ft | 0 kts | 80° |
| 2026-04-26 14:34 | -4.08344 | 122.40924 | 185 ft | 0 kts | 80° |
| 2026-04-26 14:35 | -4.08343 | 122.40927 | 185 ft | 7 kts | 80° |
| 2026-04-26 14:35 | -4.08283 | 122.41264 | 173 ft | 88 kts | 79° |
| 2026-04-26 14:35 | -4.08133 | 122.42103 | 146 ft | 153 kts | 81° |
| 2026-04-26 14:35 | -4.07937 | 122.43233 | 531 ft | 170 kts | 79° |
| 2026-04-26 14:36 | -4.07740 | 122.44409 | 1214 ft | 174 kts | 76° |
| 2026-04-26 14:36 | -4.07137 | 122.45377 | 1971 ft | 170 kts | 33° |
| 2026-04-26 14:36 | -4.05967 | 122.45732 | 2401 ft | 184 kts | 9° |
| 2026-04-26 14:36 | -4.04649 | 122.45876 | 2794 ft | 199 kts | 7° |
| 2026-04-26 14:37 | -4.03199 | 122.46024 | 3094 ft | 220 kts | 9° |
| 2026-04-26 14:37 | -4.01614 | 122.46246 | 3477 ft | 239 kts | 11° |
| 2026-04-26 14:37 | -3.99892 | 122.46531 | 3929 ft | 256 kts | 11° |
| 2026-04-26 14:37 | -3.98092 | 122.46850 | 4538 ft | 267 kts | 12° |
| 2026-04-26 14:38 | -3.96278 | 122.47179 | 5316 ft | 269 kts | 12° |
| 2026-04-26 14:38 | -3.94426 | 122.47520 | 6059 ft | 273 kts | 11° |
| 2026-04-26 14:38 | -3.92555 | 122.47863 | 6807 ft | 276 kts | 11° |
| 2026-04-26 14:38 | -3.91301 | 122.48078 | 7289 ft | 278 kts | 9° |
| 2026-04-26 14:39 | -3.88694 | 122.48216 | 8278 ft | 283 kts | 359° |
| 2026-04-26 14:39 | -3.86715 | 122.48104 | 8967 ft | 288 kts | 357° |
| 2026-04-26 14:39 | -3.84685 | 122.47955 | 9652 ft | 292 kts | 357° |
| 2026-04-26 14:39 | -3.82650 | 122.47800 | 10307 ft | 296 kts | 357° |
| 2026-04-26 14:40 | -3.80555 | 122.47647 | 10684 ft | 311 kts | 357° |
| 2026-04-26 14:40 | -3.78314 | 122.47487 | 11023 ft | 327 kts | 357° |
| 2026-04-26 14:40 | -3.76045 | 122.47326 | 11583 ft | 333 kts | 357° |
| 2026-04-26 14:40 | -3.73715 | 122.47160 | 12229 ft | 336 kts | 357° |
| 2026-04-26 14:41 | -3.71358 | 122.46991 | 12852 ft | 339 kts | 357° |
| 2026-04-26 14:41 | -3.69017 | 122.46824 | 13435 ft | 343 kts | 357° |
| 2026-04-26 14:41 | -3.66602 | 122.46651 | 14046 ft | 346 kts | 358° |
| 2026-04-26 14:41 | -3.64204 | 122.46481 | 14642 ft | 348 kts | 358° |
| 2026-04-26 14:42 | -3.61788 | 122.46310 | 15232 ft | 350 kts | 358° |
| 2026-04-26 14:42 | -3.59328 | 122.46172 | 15813 ft | 351 kts | 1° |
| 2026-04-26 14:42 | -3.56878 | 122.46262 | 16358 ft | 353 kts | 7° |
| 2026-04-26 14:42 | -3.54450 | 122.46608 | 16889 ft | 354 kts | 13° |
| 2026-04-26 14:43 | -3.52014 | 122.47084 | 17424 ft | 356 kts | 14° |
| 2026-04-26 14:43 | -3.49570 | 122.47584 | 17948 ft | 358 kts | 14° |
| 2026-04-26 14:43 | -3.47149 | 122.48080 | 18447 ft | 361 kts | 14° |
| 2026-04-26 14:43 | -3.44674 | 122.48585 | 18944 ft | 363 kts | 14° |
| 2026-04-26 14:44 | -3.42180 | 122.49091 | 19403 ft | 367 kts | 14° |
| 2026-04-26 14:44 | -3.39653 | 122.49601 | 19865 ft | 370 kts | 14° |
| 2026-04-26 14:44 | -3.37125 | 122.50112 | 20332 ft | 372 kts | 13° |
| 2026-04-26 14:44 | -3.34572 | 122.50627 | 20792 ft | 375 kts | 13° |
| 2026-04-26 14:45 | -3.31974 | 122.51151 | 21247 ft | 378 kts | 13° |
| 2026-04-26 14:45 | -3.30272 | 122.51493 | 21532 ft | 380 kts | 13° |
| 2026-04-26 14:45 | -3.26801 | 122.52190 | 22126 ft | 383 kts | 13° |
| 2026-04-26 14:45 | -3.24177 | 122.52717 | 22564 ft | 385 kts | 13° |
| 2026-04-26 14:46 | -3.21505 | 122.53254 | 23005 ft | 388 kts | 13° |
| 2026-04-26 14:46 | -3.18855 | 122.53787 | 23419 ft | 391 kts | 13° |
| 2026-04-26 14:46 | -3.16170 | 122.54327 | 23830 ft | 393 kts | 13° |
| 2026-04-26 14:46 | -3.13470 | 122.54871 | 24251 ft | 395 kts | 13° |
| 2026-04-26 14:47 | -3.10790 | 122.55408 | 24654 ft | 398 kts | 13° |
| 2026-04-26 14:47 | -3.08041 | 122.55960 | 25059 ft | 400 kts | 14° |
| 2026-04-26 14:47 | -3.05313 | 122.56509 | 25451 ft | 402 kts | 14° |
| 2026-04-26 14:47 | -3.02549 | 122.57064 | 25845 ft | 404 kts | 13° |
| 2026-04-26 14:48 | -2.99808 | 122.57616 | 26217 ft | 406 kts | 14° |
| 2026-04-26 14:48 | -2.97014 | 122.58176 | 26593 ft | 408 kts | 14° |
| 2026-04-26 14:48 | -2.94225 | 122.58736 | 26967 ft | 409 kts | 14° |
| 2026-04-26 14:48 | -2.91430 | 122.59300 | 27334 ft | 411 kts | 14° |
| 2026-04-26 14:49 | -2.88583 | 122.59872 | 27686 ft | 413 kts | 14° |
| 2026-04-26 14:49 | -2.85782 | 122.60435 | 28040 ft | 415 kts | 14° |
| 2026-04-26 14:49 | -2.82940 | 122.61005 | 28384 ft | 416 kts | 14° |
| 2026-04-26 14:49 | -2.80082 | 122.61580 | 28700 ft | 418 kts | 14° |
| 2026-04-26 14:50 | -2.77192 | 122.62159 | 29029 ft | 420 kts | 14° |
| 2026-04-26 14:50 | -2.74311 | 122.62737 | 29346 ft | 422 kts | 14° |
| 2026-04-26 14:50 | -2.71432 | 122.63316 | 29622 ft | 424 kts | 14° |
| 2026-04-26 14:50 | -2.68533 | 122.63896 | 29910 ft | 427 kts | 14° |
| 2026-04-26 14:51 | -2.65618 | 122.64482 | 30192 ft | 429 kts | 14° |
| 2026-04-26 14:51 | -2.62664 | 122.65075 | 30481 ft | 430 kts | 14° |
| 2026-04-26 14:51 | -2.59720 | 122.65668 | 30802 ft | 431 kts | 14° |
| 2026-04-26 14:51 | -2.56802 | 122.66254 | 31195 ft | 430 kts | 14° |
| 2026-04-26 14:52 | -2.53841 | 122.66848 | 31587 ft | 429 kts | 14° |
| 2026-04-26 14:52 | -2.50936 | 122.67430 | 31948 ft | 428 kts | 15° |
| 2026-04-26 14:52 | -2.47971 | 122.68024 | 32298 ft | 428 kts | 15° |
| 2026-04-26 14:52 | -2.45086 | 122.68604 | 32646 ft | 428 kts | 15° |
| 2026-04-26 14:53 | -2.42122 | 122.69201 | 33001 ft | 428 kts | 15° |
| 2026-04-26 14:53 | -2.39205 | 122.69788 | 33310 ft | 429 kts | 15° |
| 2026-04-26 14:53 | -2.36293 | 122.70374 | 33593 ft | 431 kts | 15° |
| 2026-04-26 14:53 | -2.33321 | 122.70972 | 33872 ft | 432 kts | 15° |
| 2026-04-26 14:54 | -2.30378 | 122.71564 | 34158 ft | 433 kts | 15° |
| 2026-04-26 14:54 | -2.27387 | 122.72165 | 34436 ft | 434 kts | 15° |
| 2026-04-26 14:54 | -2.24410 | 122.72762 | 34696 ft | 436 kts | 14° |
| 2026-04-26 14:54 | -2.21456 | 122.73355 | 34859 ft | 437 kts | 14° |
| 2026-04-26 14:55 | -2.18465 | 122.73956 | 34860 ft | 437 kts | 14° |
| 2026-04-26 14:55 | -2.12491 | 122.75153 | 34861 ft | 437 kts | 14° |
| 2026-04-26 14:56 | -2.06515 | 122.76354 | 34860 ft | 437 kts | 14° |
| 2026-04-26 14:56 | -2.00547 | 122.77551 | 34860 ft | 437 kts | 14° |
| 2026-04-26 14:57 | -1.94560 | 122.78752 | 34861 ft | 438 kts | 14° |
| 2026-04-26 14:57 | -1.88574 | 122.79954 | 34862 ft | 439 kts | 14° |
| 2026-04-26 14:58 | -1.82577 | 122.81157 | 34863 ft | 439 kts | 14° |
| 2026-04-26 14:58 | -1.76543 | 122.82368 | 34863 ft | 439 kts | 14° |
| 2026-04-26 14:59 | -1.70568 | 122.83566 | 34863 ft | 439 kts | 14° |
| 2026-04-26 14:59 | -1.64580 | 122.84769 | 34864 ft | 439 kts | 14° |
| 2026-04-26 15:00 | -1.58569 | 122.85973 | 34863 ft | 440 kts | 14° |
| 2026-04-26 15:00 | -1.52545 | 122.87183 | 34862 ft | 441 kts | 14° |
| 2026-04-26 15:01 | -1.46521 | 122.88392 | 34859 ft | 441 kts | 14° |
| 2026-04-26 15:01 | -1.40468 | 122.89605 | 34858 ft | 441 kts | 14° |
| 2026-04-26 15:02 | -1.34464 | 122.90810 | 34859 ft | 441 kts | 14° |
| 2026-04-26 15:02 | -1.28398 | 122.92027 | 34868 ft | 441 kts | 14° |
| 2026-04-26 15:03 | -1.22359 | 122.93239 | 34882 ft | 442 kts | 14° |
| 2026-04-26 15:03 | -1.16308 | 122.94453 | 34885 ft | 443 kts | 14° |
| 2026-04-26 15:04 | -1.10264 | 122.95665 | 34345 ft | 444 kts | 14° |
| 2026-04-26 15:04 | -1.07221 | 122.96275 | 33715 ft | 442 kts | 14° |
| 2026-04-26 15:04 | -1.04222 | 122.96876 | 33106 ft | 439 kts | 15° |
| 2026-04-26 15:04 | -1.01212 | 122.97480 | 32489 ft | 437 kts | 15° |
| 2026-04-26 15:05 | -0.98244 | 122.98077 | 31891 ft | 437 kts | 15° |
| 2026-04-26 15:05 | -0.96242 | 122.98480 | 31468 ft | 437 kts | 15° |
| 2026-04-26 15:05 | -0.92256 | 122.99228 | 30688 ft | 437 kts | 11° |
| 2026-04-26 15:05 | -0.89236 | 122.99553 | 30124 ft | 437 kts | 7° |
| 2026-04-26 15:06 | -0.86237 | 122.99635 | 29681 ft | 433 kts | 2° |
| 2026-04-26 15:06 | -0.83207 | 122.99478 | 29326 ft | 431 kts | 358° |
| 2026-04-26 15:06 | -0.80227 | 122.99196 | 28950 ft | 428 kts | 358° |
| 2026-04-26 15:06 | -0.77273 | 122.98896 | 28552 ft | 425 kts | 358° |
| 2026-04-26 15:07 | -0.71431 | 122.98302 | 27708 ft | 418 kts | 358° |
| 2026-04-26 15:07 | -0.68542 | 122.98011 | 27242 ft | 416 kts | 358° |
| 2026-04-26 15:07 | -0.65680 | 122.97725 | 26759 ft | 413 kts | 358° |
| 2026-04-26 15:08 | -0.62817 | 122.97440 | 26268 ft | 410 kts | 358° |
| 2026-04-26 15:08 | -0.59970 | 122.97156 | 25783 ft | 408 kts | 357° |
| 2026-04-26 15:08 | -0.57153 | 122.96877 | 25290 ft | 406 kts | 357° |
| 2026-04-26 15:08 | -0.54312 | 122.96594 | 24791 ft | 404 kts | 357° |
| 2026-04-26 15:09 | -0.51530 | 122.96317 | 24305 ft | 403 kts | 357° |
| 2026-04-26 15:09 | -0.48765 | 122.96042 | 23819 ft | 401 kts | 357° |
| 2026-04-26 15:09 | -0.45967 | 122.95764 | 23328 ft | 399 kts | 357° |
| 2026-04-26 15:09 | -0.43189 | 122.95488 | 22851 ft | 398 kts | 357° |
| 2026-04-26 15:10 | -0.40443 | 122.95216 | 22376 ft | 396 kts | 357° |
| 2026-04-26 15:10 | -0.38617 | 122.95033 | 22064 ft | 395 kts | 357° |
| 2026-04-26 15:10 | -0.34989 | 122.94672 | 21451 ft | 392 kts | 357° |
| 2026-04-26 15:10 | -0.32260 | 122.94400 | 21002 ft | 390 kts | 357° |
| 2026-04-26 15:11 | -0.29562 | 122.94132 | 20546 ft | 388 kts | 357° |
| 2026-04-26 15:11 | -0.26910 | 122.93868 | 20099 ft | 385 kts | 357° |
| 2026-04-26 15:11 | -0.24241 | 122.93602 | 19645 ft | 383 kts | 357° |
| 2026-04-26 15:11 | -0.21586 | 122.93338 | 19189 ft | 381 kts | 356° |
| 2026-04-26 15:12 | -0.18938 | 122.93075 | 18735 ft | 379 kts | 356° |
| 2026-04-26 15:12 | -0.16328 | 122.92815 | 18283 ft | 377 kts | 357° |
| 2026-04-26 15:12 | -0.13715 | 122.92554 | 17836 ft | 374 kts | 357° |
| 2026-04-26 15:12 | -0.11124 | 122.92297 | 17382 ft | 372 kts | 357° |
| 2026-04-26 15:13 | -0.08540 | 122.92039 | 16941 ft | 370 kts | 357° |
| 2026-04-26 15:13 | -0.05992 | 122.91785 | 16503 ft | 368 kts | 357° |
| 2026-04-26 15:13 | -0.03435 | 122.91534 | 16057 ft | 366 kts | 357° |
| 2026-04-26 15:13 | -0.00900 | 122.91283 | 15602 ft | 364 kts | 356° |
| 2026-04-26 15:14 | 0.01618 | 122.91033 | 15150 ft | 362 kts | 357° |
| 2026-04-26 15:14 | 0.04125 | 122.90783 | 14697 ft | 360 kts | 356° |
| 2026-04-26 15:14 | 0.06596 | 122.90539 | 14252 ft | 358 kts | 356° |
| 2026-04-26 15:14 | 0.09074 | 122.90292 | 13802 ft | 356 kts | 356° |
| 2026-04-26 15:15 | 0.11554 | 122.90045 | 13351 ft | 354 kts | 356° |
| 2026-04-26 15:15 | 0.14009 | 122.89801 | 12905 ft | 352 kts | 356° |
| 2026-04-26 15:15 | 0.16435 | 122.89568 | 12467 ft | 350 kts | 356° |
| 2026-04-26 15:15 | 0.18837 | 122.89342 | 12034 ft | 347 kts | 356° |
| 2026-04-26 15:16 | 0.21269 | 122.89117 | 11602 ft | 345 kts | 356° |
| 2026-04-26 15:16 | 0.23631 | 122.88898 | 11215 ft | 341 kts | 356° |
| 2026-04-26 15:16 | 0.25962 | 122.88680 | 11069 ft | 329 kts | 356° |
| 2026-04-26 15:16 | 0.28215 | 122.88470 | 10945 ft | 316 kts | 357° |
| 2026-04-26 15:17 | 0.30397 | 122.88590 | 10566 ft | 309 kts | 18° |
| 2026-04-26 15:17 | 0.31686 | 122.89128 | 10352 ft | 303 kts | 34° |
| 2026-04-26 15:17 | 0.33530 | 122.91123 | 9883 ft | 293 kts | 66° |
| 2026-04-26 15:17 | 0.34066 | 122.93076 | 9505 ft | 289 kts | 86° |
| 2026-04-26 15:18 | 0.34163 | 122.95038 | 9142 ft | 287 kts | 86° |
| 2026-04-26 15:18 | 0.34404 | 122.97019 | 8773 ft | 285 kts | 79° |
| 2026-04-26 15:18 | 0.34888 | 122.98920 | 8420 ft | 284 kts | 72° |
| 2026-04-26 15:18 | 0.35593 | 123.00759 | 8065 ft | 282 kts | 66° |
| 2026-04-26 15:19 | 0.36467 | 123.02504 | 7717 ft | 280 kts | 61° |
| 2026-04-26 15:19 | 0.37479 | 123.04158 | 7377 ft | 278 kts | 57° |
| 2026-04-26 15:19 | 0.38607 | 123.05723 | 7037 ft | 277 kts | 53° |
| 2026-04-26 15:19 | 0.39911 | 123.07130 | 6678 ft | 276 kts | 38° |
| 2026-04-26 15:20 | 0.41602 | 123.08016 | 6323 ft | 277 kts | 18° |
| 2026-04-26 15:20 | 0.43495 | 123.08376 | 5986 ft | 276 kts | 9° |
| 2026-04-26 15:20 | 0.45400 | 123.08637 | 5655 ft | 274 kts | 8° |
| 2026-04-26 15:20 | 0.47289 | 123.08884 | 5333 ft | 272 kts | 9° |
| 2026-04-26 15:21 | 0.49169 | 123.09133 | 5012 ft | 270 kts | 9° |
| 2026-04-26 15:21 | 0.51023 | 123.09386 | 4695 ft | 268 kts | 9° |
| 2026-04-26 15:21 | 0.52865 | 123.09638 | 4376 ft | 260 kts | 9° |
| 2026-04-26 15:21 | 0.54602 | 123.09877 | 4095 ft | 248 kts | 9° |
| 2026-04-26 15:22 | 0.56271 | 123.10103 | 4029 ft | 238 kts | 6° |
| 2026-04-26 15:22 | 0.57932 | 123.09943 | 3821 ft | 240 kts | 339° |
| 2026-04-26 15:22 | 0.59340 | 123.09096 | 3622 ft | 229 kts | 324° |
| 2026-04-26 15:22 | 0.60454 | 123.08051 | 3414 ft | 218 kts | 301° |
| 2026-04-26 15:23 | 0.60972 | 123.06657 | 3302 ft | 214 kts | 282° |
| 2026-04-26 15:23 | 0.61195 | 123.05176 | 3217 ft | 212 kts | 277° |
| 2026-04-26 15:23 | 0.61338 | 123.03773 | 3147 ft | 198 kts | 277° |
| 2026-04-26 15:23 | 0.61477 | 123.02451 | 3013 ft | 185 kts | 278° |
| 2026-04-26 15:24 | 0.61619 | 123.01233 | 2953 ft | 168 kts | 279° |
| 2026-04-26 15:24 | 0.61762 | 123.00099 | 2762 ft | 163 kts | 279° |
| 2026-04-26 15:24 | 0.61909 | 122.98968 | 2572 ft | 162 kts | 279° |
| 2026-04-26 15:24 | 0.62055 | 122.97856 | 2360 ft | 162 kts | 280° |
| 2026-04-26 15:25 | 0.62201 | 122.96735 | 2148 ft | 162 kts | 279° |
| 2026-04-26 15:25 | 0.62297 | 122.95994 | 2007 ft | 162 kts | 279° |
| 2026-04-26 15:25 | 0.62482 | 122.94545 | 1720 ft | 150 kts | 280° |
| 2026-04-26 15:25 | 0.62613 | 122.93528 | 1527 ft | 147 kts | 280° |
| 2026-04-26 15:26 | 0.62744 | 122.92518 | 1351 ft | 146 kts | 279° |
| 2026-04-26 15:26 | 0.62872 | 122.91522 | 1174 ft | 145 kts | 279° |
| 2026-04-26 15:26 | 0.63000 | 122.90522 | 993 ft | 145 kts | 279° |
| 2026-04-26 15:26 | 0.63127 | 122.89504 | 799 ft | 147 kts | 278° |
| 2026-04-26 15:27 | 0.63262 | 122.88495 | 611 ft | 147 kts | 279° |
| 2026-04-26 15:27 | 0.63395 | 122.87486 | 426 ft | 146 kts | 279° |
| 2026-04-26 15:27 | 0.63519 | 122.86486 | 245 ft | 145 kts | 278° |
| 2026-04-26 15:27 | 0.63639 | 122.85493 | 134 ft | 135 kts | 279° |
| 2026-04-26 15:28 | 0.63744 | 122.84690 | 146 ft | 93 kts | 276° |
| 2026-04-26 15:28 | 0.63801 | 122.84218 | 154 ft | 48 kts | 277° |
| 2026-04-26 15:28 | 0.63813 | 122.84081 | 157 ft | 6 kts | 106° |
| 2026-04-26 15:28 | 0.63813 | 122.84126 | 156 ft | 8 kts | 99° |
| 2026-04-26 15:29 | 0.63802 | 122.84203 | 155 ft | 13 kts | 96° |
| 2026-04-26 15:29 | 0.63794 | 122.84305 | 153 ft | 11 kts | 78° |
| 2026-04-26 15:29 | 0.63938 | 122.84348 | 155 ft | 9 kts | 18° |
| 2026-04-26 15:30 | 0.63956 | 122.84460 | 153 ft | 5 kts | 38° |
| 2026-04-26 15:30 | 0.63995 | 122.84466 | 154 ft | 5 kts | 7° |
| 2026-04-26 15:30 | 0.64014 | 122.84468 | 154 ft | 0 kts | 7° |